Time;durP1;ratioP1;P1;durP2;ratioP2;P2;SDS_P1;SDS_P2;PMS_P1;PMS_P2;Temp;Humidity;BMP_temperature;BMP_pressure;BME280_temperature;BME280_humidity;BME280_pressure;Samples;Min_cycle;Max_cycle;Signal;HPM_P1;HPM_P2
2023/05/27 00:00:38;;;;;;;;;3.50;3.00;;;;;9.62;63.25;101128.38;5119456;28;8852;-61
2023/05/27 00:03:06;;;;;;;;;3.00;3.00;;;;;9.62;63.31;101124.84;5119373;28;8820;-61
2023/05/27 00:05:34;;;;;;;;;4.50;4.00;;;;;9.66;63.51;101121.09;5118959;28;8925;-61
2023/05/27 00:08:02;;;;;;;;;1.00;1.00;;;;;9.72;63.63;101121.59;5119107;28;8824;-62
2023/05/27 00:10:30;;;;;;;;;2.50;1.50;;;;;9.71;63.13;101117.22;5119733;28;8828;-62
2023/05/27 00:12:58;;;;;;;;;5.00;4.50;;;;;9.69;63.53;101129.75;5111043;28;8845;-60
2023/05/27 00:15:26;;;;;;;;;3.75;3.75;;;;;9.63;63.63;101121.28;5118226;28;8865;-59
2023/05/27 00:17:54;;;;;;;;;3.25;3.25;;;;;9.58;63.12;101128.66;5117155;28;8816;-61
2023/05/27 00:20:22;;;;;;;;;5.50;5.50;;;;;9.52;63.56;101123.66;5118804;28;9561;-61
2023/05/27 00:22:50;;;;;;;;;1.50;1.00;;;;;9.46;63.95;101119.56;5118908;28;8843;-61
2023/05/27 00:25:20;;;;;;;;;3.00;3.00;;;;;9.40;63.99;101119.91;5119077;28;9466;-59
2023/05/27 00:27:48;;;;;;;;;3.50;3.00;;;;;9.34;63.82;101122.91;5118689;28;8824;-62
2023/05/27 00:30:16;;;;;;;;;5.00;3.50;;;;;9.32;63.97;101116.81;5119085;28;9617;-61
2023/05/27 00:32:43;;;;;;;;;3.00;3.00;;;;;9.30;63.93;101109.88;5118822;28;8947;-61
2023/05/27 00:35:12;;;;;;;;;3.00;3.00;;;;;9.27;64.24;101112.72;5118955;28;8966;-60
2023/05/27 00:37:39;;;;;;;;;3.50;3.50;;;;;9.24;64.43;101112.84;5118671;28;8852;-60
2023/05/27 00:40:07;;;;;;;;;3.00;3.00;;;;;9.19;64.37;101120.25;5117998;28;8931;-59
2023/05/27 00:42:35;;;;;;;;;3.00;3.00;;;;;9.11;64.35;101111.84;5118841;28;8831;-61
2023/05/27 00:45:02;;;;;;;;;6.00;4.00;;;;;9.04;64.23;101119.28;5118706;28;8827;-61
2023/05/27 00:47:31;;;;;;;;;3.00;1.00;;;;;8.94;64.61;101114.53;5118538;28;8838;-59
2023/05/27 00:49:58;;;;;;;;;2.00;2.00;;;;;8.85;64.76;101110.59;5118535;28;8820;-59
2023/05/27 00:52:27;;;;;;;;;3.00;3.00;;;;;8.80;64.95;101119.75;5118831;28;8823;-60
2023/05/27 00:54:56;;;;;;;;;5.50;4.50;;;;;8.82;65.21;101109.91;5118450;28;8904;-61
2023/05/27 00:57:23;;;;;;;;;3.00;3.00;;;;;8.85;65.05;101109.72;5117368;28;8885;-60
2023/05/27 00:59:51;;;;;;;;;4.75;4.75;;;;;8.87;64.94;101110.50;5117915;28;9779;-60
2023/05/27 01:02:20;;;;;;;;;4.00;4.00;;;;;8.89;64.59;101101.50;5117960;28;8836;-59
2023/05/27 01:04:48;;;;;;;;;3.00;3.00;;;;;8.93;64.88;101100.41;5118506;28;9499;-59
2023/05/27 01:07:16;;;;;;;;;4.00;4.00;;;;;8.93;64.84;101099.53;5118113;28;8824;-59
2023/05/27 01:09:43;;;;;;;;;5.00;5.00;;;;;8.92;64.55;101101.38;5118140;28;8959;-59
2023/05/27 01:12:11;;;;;;;;;3.75;3.75;;;;;8.97;64.59;101109.91;5118653;28;8824;-59
2023/05/27 01:14:39;;;;;;;;;4.50;3.00;;;;;9.01;64.63;101111.47;5118140;28;8816;-61
2023/05/27 01:17:07;;;;;;;;;4.50;3.75;;;;;9.03;64.69;101108.75;5117494;28;8831;-59
2023/05/27 01:19:35;;;;;;;;;3.25;3.00;;;;;9.01;64.57;101105.28;5117625;28;8830;-60
2023/05/27 01:22:04;;;;;;;;;2.00;1.50;;;;;8.97;64.96;101106.41;5117565;28;8929;-60
2023/05/27 01:24:33;;;;;;;;;3.00;3.00;;;;;8.95;65.50;101101.19;5117923;28;9538;-62
2023/05/27 01:27:02;;;;;;;;;7.00;4.00;;;;;8.98;65.24;101097.50;5117376;28;8954;-60
2023/05/27 01:29:30;;;;;;;;;4.50;4.50;;;;;9.03;64.65;101098.13;5117812;28;8823;-60
2023/05/27 01:31:57;;;;;;;;;4.00;3.25;;;;;9.04;64.85;101089.22;5109619;28;8843;-61
2023/05/27 01:34:25;;;;;;;;;5.00;5.00;;;;;9.05;64.65;101090.91;5116738;28;8894;-60
2023/05/27 01:36:54;;;;;;;;;5.00;5.00;;;;;9.06;65.10;101087.31;5117827;28;8970;-60
2023/05/27 01:39:22;;;;;;;;;7.00;3.25;;;;;9.06;64.89;101093.50;5117658;28;8831;-62
2023/05/27 01:41:50;;;;;;;;;8.50;7.50;;;;;9.06;64.97;101089.97;5117378;28;8961;-61
2023/05/27 01:44:18;;;;;;;;;3.75;3.75;;;;;9.07;65.20;101086.38;5117557;28;8901;-60
2023/05/27 01:46:46;;;;;;;;;1.00;1.00;;;;;9.03;65.06;101083.03;5117533;28;8839;-60
2023/05/27 01:49:13;;;;;;;;;0.50;0.00;;;;;9.03;65.31;101085.69;5117403;28;8854;-61
2023/05/27 01:51:41;;;;;;;;;3.25;3.25;;;;;9.02;64.83;101081.31;5117409;28;8816;-61
2023/05/27 01:54:09;;;;;;;;;1.00;1.00;;;;;9.02;65.01;101086.63;5117238;28;8881;-61
2023/05/27 01:56:37;;;;;;;;;4.00;3.00;;;;;9.01;65.22;101090.22;5116961;28;8843;-62
2023/05/27 01:59:04;;;;;;;;;5.00;2.00;;;;;9.01;65.10;101086.69;5117108;28;8832;-62
2023/05/27 02:01:34;;;;;;;;;4.00;3.25;;;;;8.98;65.11;101079.75;5116715;28;8816;-60
2023/05/27 02:04:02;;;;;;;;;5.50;4.50;;;;;8.94;65.86;101078.22;5117021;28;8917;-62
2023/05/27 02:06:29;;;;;;;;;4.00;4.00;;;;;8.92;65.50;101077.47;5117103;28;8828;-62
2023/05/27 02:08:57;;;;;;;;;3.25;3.25;;;;;8.89;65.74;101080.25;5117068;28;8831;-62
2023/05/27 02:11:25;;;;;;;;;4.00;4.00;;;;;8.87;66.01;101078.63;5117107;28;9616;-61
2023/05/27 02:13:53;;;;;;;;;6.00;6.00;;;;;8.85;66.12;101075.19;5116806;28;8840;-60
2023/05/27 02:16:21;;;;;;;;;3.00;3.00;;;;;8.82;65.81;101076.22;5116731;28;8982;-62
2023/05/27 02:18:49;;;;;;;;;4.50;4.50;;;;;8.81;66.05;101071.84;5116887;28;8824;-60
2023/05/27 02:21:17;;;;;;;;;3.25;3.00;;;;;8.79;66.28;101075.53;5117115;28;8824;-62
2023/05/27 02:23:45;;;;;;;;;3.00;3.00;;;;;8.75;66.38;101080.16;5116763;28;8826;-62
2023/05/27 02:26:13;;;;;;;;;5.50;5.50;;;;;8.75;66.12;101081.97;5116343;28;8828;-62
2023/05/27 02:28:41;;;;;;;;;5.50;5.00;;;;;8.75;66.43;101081.97;5116655;28;8854;-62
2023/05/27 02:31:08;;;;;;;;;5.00;5.00;;;;;8.71;66.50;101075.09;5116612;28;8831;-62
2023/05/27 02:33:36;;;;;;;;;3.00;3.00;;;;;8.63;66.34;101072.84;5116246;28;8796;-62
2023/05/27 02:36:04;;;;;;;;;4.00;4.00;;;;;8.58;66.47;101080.19;5116481;28;8881;-59
2023/05/27 02:38:31;;;;;;;;;3.00;3.00;;;;;8.53;66.74;101073.44;5116528;28;8828;-61
2023/05/27 02:40:59;;;;;;;;;5.50;3.25;;;;;8.48;66.77;101076.34;5116754;28;8842;-62
2023/05/27 02:43:27;;;;;;;;;3.00;3.00;;;;;8.43;66.50;101091.63;5116610;28;8942;-61
2023/05/27 02:45:54;;;;;;;;;3.50;2.75;;;;;8.36;67.11;101090.22;5116746;28;8847;-62
2023/05/27 02:48:22;;;;;;;;;4.00;3.00;;;;;8.29;66.83;101083.53;5116375;28;8835;-61
2023/05/27 02:50:51;;;;;;;;;3.75;3.75;;;;;8.30;67.34;101087.06;5116455;28;8856;-62
2023/05/27 02:53:18;;;;;;;;;6.20;6.00;;;;;8.35;66.88;101087.69;5115971;28;8830;-61
2023/05/27 02:55:46;;;;;;;;;2.50;2.50;;;;;8.42;66.91;101079.31;5116713;28;8823;-60
2023/05/27 02:58:14;;;;;;;;;6.50;6.50;;;;;8.46;66.39;101078.22;5116528;28;8842;-62
2023/05/27 03:00:42;;;;;;;;;0.00;0.00;;;;;8.49;66.80;101078.03;5116297;28;8854;-60
2023/05/27 03:03:09;;;;;;;;;6.00;4.00;;;;;8.48;66.75;101078.97;5116080;28;9462;-60
2023/05/27 03:05:37;;;;;;;;;4.00;4.00;;;;;8.47;66.85;101071.97;5116692;28;8936;-60
2023/05/27 03:08:05;;;;;;;;;2.80;2.80;;;;;8.51;66.80;101076.16;5116407;28;8846;-61
2023/05/27 03:10:33;;;;;;;;;3.00;3.00;;;;;8.53;67.03;101068.13;5116438;28;8824;-61
2023/05/27 03:13:02;;;;;;;;;4.00;3.50;;;;;8.52;66.95;101064.59;5116098;28;8937;-61
2023/05/27 03:15:31;;;;;;;;;6.25;3.25;;;;;8.49;67.29;101059.47;5116329;28;8857;-60
2023/05/27 03:17:59;;;;;;;;;3.00;3.00;;;;;8.42;67.20;101057.19;5116310;28;8816;-60
2023/05/27 03:20:27;;;;;;;;;4.50;3.75;;;;;8.32;67.76;101064.81;5116275;28;8908;-62
2023/05/27 03:22:54;;;;;;;;;3.25;2.50;;;;;8.21;67.43;101066.31;5115623;28;8842;-60
2023/05/27 03:25:22;;;;;;;;;3.25;3.25;;;;;8.11;67.58;101060.59;5116238;28;8819;-62
2023/05/27 03:27:50;;;;;;;;;3.40;3.00;;;;;8.04;67.85;101064.47;5116566;28;8916;-59
2023/05/27 03:30:18;;;;;;;;;3.50;3.25;;;;;7.98;67.50;101067.44;5115863;28;8853;-61
2023/05/27 03:32:46;;;;;;;;;6.25;6.00;;;;;7.93;67.72;101063.31;5115775;28;8800;-60
2023/05/27 03:35:13;;;;;;;;;4.00;3.20;;;;;7.89;67.85;101062.63;5116106;28;8866;-60
2023/05/27 03:37:41;;;;;;;;;6.40;6.00;;;;;7.84;68.36;101064.63;5116142;28;8820;-60
2023/05/27 03:40:09;;;;;;;;;3.40;3.00;;;;;7.81;68.13;101064.78;5116144;28;8820;-62
2023/05/27 03:42:37;;;;;;;;;4.80;4.00;;;;;7.78;68.39;101058.78;5115182;28;8848;-60
2023/05/27 03:45:05;;;;;;;;;0.25;0.25;;;;;7.76;68.01;101060.66;5116382;28;8831;-60
2023/05/27 03:47:34;;;;;;;;;3.60;3.60;;;;;7.75;67.92;101058.97;5115971;28;8820;-59
2023/05/27 03:50:02;;;;;;;;;6.00;6.00;;;;;7.73;68.43;101063.44;5115481;28;8812;-60
2023/05/27 03:52:30;;;;;;;;;2.60;2.60;;;;;7.73;68.12;101064.31;5115490;28;8808;-60
2023/05/27 03:54:58;;;;;;;;;5.80;5.20;;;;;7.72;67.87;101066.22;5115764;28;8935;-60
2023/05/27 03:57:25;;;;;;;;;5.20;4.20;;;;;7.74;67.91;101068.69;5115780;28;8835;-59
2023/05/27 03:59:53;;;;;;;;;6.00;5.60;;;;;7.79;67.99;101056.06;5119232;28;8843;-60
2023/05/27 04:02:21;;;;;;;;;6.00;4.00;;;;;7.85;68.17;101066.34;5118792;28;8820;-60
2023/05/27 04:04:49;;;;;;;;;5.60;4.00;;;;;7.90;67.79;101063.50;5118851;28;8820;-59
2023/05/27 04:07:17;;;;;;;;;4.00;4.00;;;;;7.91;67.76;101063.38;5119397;28;8954;-60
2023/05/27 04:09:45;;;;;;;;;3.60;3.60;;;;;7.95;67.68;101061.44;5119080;28;8855;-59
2023/05/27 04:12:13;;;;;;;;;5.60;4.00;;;;;7.97;67.92;101049.81;5118700;28;8836;-60
2023/05/27 04:14:40;;;;;;;;;6.80;4.80;;;;;8.03;67.41;101051.28;5119205;28;8858;-59
2023/05/27 04:17:09;;;;;;;;;5.60;4.80;;;;;8.07;67.46;101048.41;5119251;28;8971;-59
2023/05/27 04:19:36;;;;;;;;;4.80;4.00;;;;;8.14;67.08;101047.16;5118922;28;8840;-59
2023/05/27 04:22:04;;;;;;;;;7.40;6.60;;;;;8.22;67.13;101044.16;5118992;28;8832;-61
2023/05/27 04:24:32;;;;;;;;;4.20;3.80;;;;;8.32;66.81;101034.75;5118517;28;8838;-60
2023/05/27 04:26:59;;;;;;;;;5.20;3.80;;;;;8.37;66.58;101027.41;5119018;28;8858;-59
2023/05/27 04:29:27;;;;;;;;;6.00;6.00;;;;;8.36;66.82;101026.53;5118950;28;8958;-60
2023/05/27 04:31:56;;;;;;;;;8.00;5.80;;;;;8.37;66.57;101022.94;5118427;28;8848;-59
2023/05/27 04:34:24;;;;;;;;;6.60;6.00;;;;;8.40;66.74;101028.09;5114955;28;8836;-60
2023/05/27 04:36:51;;;;;;;;;7.40;4.80;;;;;8.43;66.80;101027.94;5118805;28;8847;-59
2023/05/27 04:39:20;;;;;;;;;7.80;5.60;;;;;8.49;66.76;101032.03;5118819;28;8828;-60
2023/05/27 04:41:49;;;;;;;;;7.60;6.80;;;;;8.59;66.35;101028.81;5118869;28;8812;-59
2023/05/27 04:44:17;;;;;;;;;4.40;3.80;;;;;8.72;66.27;101024.56;5117860;28;8808;-59
2023/05/27 04:46:44;;;;;;;;;7.00;4.00;;;;;8.84;66.23;101023.91;5118557;28;8853;-61
2023/05/27 04:49:12;;;;;;;;;4.50;3.50;;;;;8.98;65.67;101034.59;5118440;28;8824;-59
2023/05/27 04:51:40;;;;;;;;;3.80;3.80;;;;;9.07;65.92;101026.13;5118028;28;8855;-59
2023/05/27 04:54:08;;;;;;;;;4.00;3.75;;;;;9.17;65.46;101026.44;5117866;28;9555;-59
2023/05/27 04:56:36;;;;;;;;;6.00;4.00;;;;;9.24;66.17;101019.84;5118170;28;8831;-59
2023/05/27 04:59:04;;;;;;;;;4.00;3.00;;;;;9.30;65.74;101023.03;5118373;28;8816;-60
2023/05/27 05:01:48;;;;;;;;;4.00;3.75;;;;;9.36;65.36;101025.34;5117916;28;8824;-60
2023/05/27 05:04:16;;;;;;;;;6.75;4.50;;;;;9.47;65.52;101038.84;5117758;28;9518;-61
2023/05/27 05:06:44;;;;;;;;;6.00;4.50;;;;;9.58;65.41;101028.44;5118639;28;8960;-61
2023/05/27 05:09:12;;;;;;;;;6.00;4.00;;;;;9.72;64.91;101019.69;5117440;28;8897;-60
2023/05/27 05:11:39;;;;;;;;;5.00;5.00;;;;;9.83;64.73;101022.53;5117557;28;8839;-61
2023/05/27 05:14:07;;;;;;;;;4.50;4.00;;;;;9.93;64.92;101024.56;5117487;28;8942;-61
2023/05/27 05:16:35;;;;;;;;;6.00;5.00;;;;;10.01;64.81;101024.13;5118200;28;8846;-62
2023/05/27 05:19:03;;;;;;;;;6.75;6.25;;;;;10.10;64.37;101027.09;5117723;28;8824;-59
2023/05/27 05:21:30;;;;;;;;;5.50;5.50;;;;;10.19;64.46;101021.25;5118186;28;8851;-60
2023/05/27 05:23:58;;;;;;;;;6.00;3.50;;;;;10.29;64.07;101027.72;5117350;28;8812;-60
2023/05/27 05:26:26;;;;;;;;;7.00;6.25;;;;;10.39;63.92;101025.34;5117670;28;8942;-60
2023/05/27 05:28:54;;;;;;;;;4.50;4.00;;;;;10.49;63.93;101029.16;5117424;28;8981;-60
2023/05/27 05:31:21;;;;;;;;;3.50;3.50;;;;;10.59;63.79;101024.94;5117658;28;8831;-60
2023/05/27 05:33:49;;;;;;;;;7.50;6.00;;;;;10.66;63.85;101029.81;5117239;28;8819;-60
2023/05/27 05:36:17;;;;;;;;;3.00;3.00;;;;;10.74;63.36;101019.53;5117621;28;8969;-60
2023/05/27 05:38:44;;;;;;;;;6.75;6.50;;;;;10.82;63.76;101016.38;5117570;28;8956;-60
2023/05/27 05:41:12;;;;;;;;;6.00;5.00;;;;;10.90;63.72;101014.06;5117755;28;8950;-60
2023/05/27 05:43:40;;;;;;;;;5.00;5.00;;;;;11.00;63.33;101020.53;5117143;28;8831;-60
2023/05/27 05:46:08;;;;;;;;;4.50;4.50;;;;;11.12;62.82;101025.94;5117530;28;8920;-60
2023/05/27 05:48:35;;;;;;;;;7.00;6.00;;;;;11.23;63.13;101027.91;5116954;28;8858;-60
2023/05/27 05:51:03;;;;;;;;;7.00;6.00;;;;;11.34;62.93;101026.25;5116903;28;8978;-60
2023/05/27 05:53:32;;;;;;;;;3.50;3.50;;;;;11.45;63.28;101026.38;5117123;28;8859;-59
2023/05/27 05:55:59;;;;;;;;;5.50;4.00;;;;;11.56;62.46;101025.69;5117007;28;8952;-60
2023/05/27 05:58:27;;;;;;;;;6.50;5.50;;;;;11.66;62.86;101026.81;5117082;28;8828;-60
2023/05/27 06:00:55;;;;;;;;;7.00;5.50;;;;;11.80;62.52;101029.41;5116472;28;8974;-60
2023/05/27 06:03:22;;;;;;;;;6.50;5.00;;;;;11.90;62.92;101023.34;5115824;28;8820;-60
2023/05/27 06:05:50;;;;;;;;;5.00;4.00;;;;;12.02;62.60;101014.53;5116607;28;8839;-62
2023/05/27 06:08:18;;;;;;;;;2.00;1.00;;;;;12.14;62.44;101008.31;5115533;28;8828;-60
2023/05/27 06:10:46;;;;;;;;;7.00;6.00;;;;;12.26;62.13;101012.84;5115248;28;9520;-60
2023/05/27 06:13:14;;;;;;;;;6.50;6.50;;;;;12.35;61.66;101002.38;5115211;28;8856;-61
2023/05/27 06:15:41;;;;;;;;;5.00;4.00;;;;;12.46;61.76;101004.28;5115459;28;8835;-61
2023/05/27 06:18:09;;;;;;;;;6.75;5.00;;;;;12.54;61.82;101004.59;5115648;28;8828;-61
2023/05/27 06:20:37;;;;;;;;;6.25;6.25;;;;;12.61;61.75;100989.84;5114746;28;8932;-61
2023/05/27 06:23:05;;;;;;;;;8.00;6.50;;;;;12.69;62.07;100984.81;5115259;28;8838;-62
2023/05/27 06:25:33;;;;;;;;;7.25;6.00;;;;;12.78;61.35;100994.81;5115936;28;8956;-60
2023/05/27 06:28:01;;;;;;;;;6.00;4.00;;;;;12.88;61.22;100994.06;5116157;28;8839;-62
2023/05/27 06:30:29;;;;;;;;;4.50;4.25;;;;;12.92;61.92;100990.19;5115765;28;8962;-62
2023/05/27 06:32:57;;;;;;;;;6.00;5.00;;;;;13.03;60.90;101000.13;5114659;28;8808;-60
2023/05/27 06:35:25;;;;;;;;;7.50;6.00;;;;;13.17;61.46;100989.28;5115391;28;8935;-60
2023/05/27 06:37:52;;;;;;;;;6.75;6.50;;;;;13.31;60.74;100994.47;5114766;28;8975;-60
2023/05/27 06:40:20;;;;;;;;;6.00;6.00;;;;;13.45;60.47;100999.66;5113987;28;8985;-60
2023/05/27 06:42:48;;;;;;;;;7.00;6.50;;;;;13.57;60.21;100996.91;5113811;28;8822;-60
2023/05/27 06:45:16;;;;;;;;;6.00;6.00;;;;;13.68;60.59;100988.09;5114387;28;8844;-60
2023/05/27 06:47:43;;;;;;;;;4.00;4.00;;;;;13.76;60.25;100991.03;5114720;28;8851;-60
2023/05/27 06:50:12;;;;;;;;;11.00;9.00;;;;;13.87;60.06;100991.91;5115153;28;8836;-59
2023/05/27 06:52:40;;;;;;;;;5.50;4.00;;;;;13.96;60.23;100979.66;5115068;28;8820;-59
2023/05/27 06:55:08;;;;;;;;;6.50;6.50;;;;;14.05;59.59;100982.47;5115738;28;8827;-62
2023/05/27 06:57:35;;;;;;;;;6.00;6.00;;;;;14.16;59.87;100987.00;5115598;28;9598;-60
2023/05/27 07:00:05;;;;;;;;;7.00;6.50;;;;;14.24;59.85;100982.78;5115032;28;8863;-59
2023/05/27 07:02:32;;;;;;;;;9.00;8.00;;;;;14.32;59.70;100977.69;5114991;28;8816;-61
2023/05/27 07:05:00;;;;;;;;;6.75;6.00;;;;;14.46;59.33;100977.44;5115057;28;8852;-59
2023/05/27 07:07:28;;;;;;;;;6.50;6.00;;;;;14.56;59.52;100981.09;5114706;28;8866;-60
2023/05/27 07:09:56;;;;;;;;;6.00;5.50;;;;;14.64;59.04;100985.88;5114912;28;8836;-60
2023/05/27 07:12:24;;;;;;;;;3.00;3.00;;;;;14.70;58.65;100991.56;5114683;28;8839;-60
2023/05/27 07:14:52;;;;;;;;;7.50;7.50;;;;;14.75;59.34;100985.84;5114557;28;8831;-60
2023/05/27 07:17:19;;;;;;;;;6.75;6.75;;;;;14.80;58.79;100986.34;5114831;28;8828;-60
2023/05/27 07:19:48;;;;;;;;;6.75;6.25;;;;;14.85;58.65;100984.97;5114397;28;8851;-60
2023/05/27 07:22:15;;;;;;;;;7.50;6.50;;;;;14.95;59.18;100980.56;5115047;28;8849;-60
2023/05/27 07:24:43;;;;;;;;;5.00;4.00;;;;;15.06;58.80;100982.38;5115370;28;8852;-61
2023/05/27 07:27:11;;;;;;;;;7.50;6.50;;;;;15.14;58.89;100974.56;5115293;28;8824;-62
2023/05/27 07:29:38;;;;;;;;;9.25;8.50;;;;;15.24;58.49;100964.81;5114856;28;8844;-60
2023/05/27 07:32:06;;;;;;;;;8.00;7.25;;;;;15.34;58.25;100960.41;5115426;28;8859;-61
2023/05/27 07:34:34;;;;;;;;;6.00;5.50;;;;;15.43;58.14;100957.81;5118705;28;8852;-60
2023/05/27 07:37:02;;;;;;;;;7.00;5.50;;;;;15.53;58.35;100950.69;5119642;28;8827;-60
2023/05/27 07:39:29;;;;;;;;;6.25;6.00;;;;;15.64;58.00;100947.09;5118780;28;8804;-61
2023/05/27 07:41:57;;;;;;;;;9.50;9.00;;;;;15.75;57.96;100942.50;5118789;28;8800;-60
2023/05/27 07:44:27;;;;;;;;;6.50;6.25;;;;;15.86;57.85;100950.50;5118096;28;8836;-61
2023/05/27 07:46:55;;;;;;;;;3.75;3.00;;;;;15.97;57.44;100952.28;5118032;28;9836;-61
2023/05/27 07:49:24;;;;;;;;;5.50;5.50;;;;;16.05;57.00;100947.09;5118012;28;8835;-61
2023/05/27 07:51:52;;;;;;;;;7.00;7.00;;;;;16.09;57.22;100937.78;5117263;28;8823;-60
2023/05/27 07:54:20;;;;;;;;;6.50;6.00;;;;;16.15;57.28;100943.47;5117570;28;8836;-61
2023/05/27 07:56:49;;;;;;;;;5.50;4.50;;;;;16.26;57.13;100938.88;5116985;28;8958;-60
2023/05/27 07:59:16;;;;;;;;;6.00;5.50;;;;;16.34;57.24;100938.22;5117283;28;8859;-60
2023/05/27 08:01:44;;;;;;;;;6.00;6.00;;;;;16.41;57.00;100934.88;5117369;28;8831;-61
2023/05/27 08:04:12;;;;;;;;;7.00;6.75;;;;;16.48;57.38;100933.34;5117664;28;8863;-60
2023/05/27 08:06:51;;;;;;;;;6.50;6.00;;;;;16.57;57.10;100923.63;5117753;28;8848;-61
2023/05/27 08:09:19;;;;;;;;;10.00;9.00;;;;;16.65;57.10;100921.94;5118252;28;9643;-61
2023/05/27 08:11:47;;;;;;;;;7.00;6.25;;;;;16.77;56.56;100926.25;5117971;28;8975;-60
2023/05/27 08:14:15;;;;;;;;;6.00;5.00;;;;;16.85;56.19;100922.88;5118668;28;8832;-61
2023/05/27 08:16:43;;;;;;;;;6.00;4.50;;;;;16.94;56.23;100912.09;5117686;28;8832;-60
2023/05/27 08:19:12;;;;;;;;;3.60;3.60;;;;;17.04;56.22;100907.63;5117320;28;8859;-61
2023/05/27 08:21:40;;;;;;;;;9.00;8.00;;;;;17.15;56.15;100909.34;5117779;28;8889;-60
2023/05/27 08:24:08;;;;;;;;;6.00;6.00;;;;;17.26;56.27;100903.81;5117512;28;8832;-60
2023/05/27 08:26:36;;;;;;;;;9.50;8.50;;;;;17.36;55.41;100902.84;5116731;28;8820;-60
2023/05/27 08:29:05;;;;;;;;;8.60;7.40;;;;;17.47;55.71;100904.56;5116214;28;8815;-60
2023/05/27 08:31:33;;;;;;;;;9.20;9.20;;;;;17.57;55.45;100891.91;5116818;28;8824;-61
2023/05/27 08:34:01;;;;;;;;;7.00;7.00;;;;;17.65;55.39;100887.53;5116062;28;8836;-60
2023/05/27 08:36:28;;;;;;;;;8.20;7.40;;;;;17.74;55.30;100889.34;5117159;28;8832;-60
2023/05/27 08:38:56;;;;;;;;;4.40;4.00;;;;;17.85;55.27;100893.72;5116860;28;8824;-61
2023/05/27 08:41:26;;;;;;;;;7.00;7.00;;;;;17.97;55.13;100884.47;5117675;28;8846;-61
2023/05/27 08:43:54;;;;;;;;;6.80;6.80;;;;;18.10;54.31;100887.69;5117875;28;8840;-61
2023/05/27 08:46:42;;;;;;;;;6.00;6.00;;;;;18.19;54.50;100881.41;5117738;28;8847;-62
2023/05/27 08:49:10;;;;;;;;;6.80;6.60;;;;;18.30;54.42;100871.31;5118198;28;8827;-61
2023/05/27 08:51:38;;;;;;;;;8.60;8.60;;;;;18.40;54.54;100869.47;5118000;28;9537;-60
2023/05/27 08:54:07;;;;;;;;;11.60;9.40;;;;;18.51;54.56;100866.56;5117794;28;8815;-61
2023/05/27 08:56:35;;;;;;;;;10.60;9.60;;;;;18.60;53.89;100870.22;5117445;28;8816;-62
2023/05/27 08:59:03;;;;;;;;;9.80;9.00;;;;;18.68;54.17;100864.91;5117052;28;9616;-61
2023/05/27 09:01:31;;;;;;;;;9.60;9.00;;;;;18.78;53.86;100855.75;5117053;28;8855;-61
2023/05/27 09:03:59;;;;;;;;;7.40;7.00;;;;;18.91;53.49;100856.22;5116758;28;8835;-61
2023/05/27 09:06:27;;;;;;;;;8.00;7.00;;;;;19.00;53.83;100852.63;5116432;28;8831;-62
2023/05/27 09:08:55;;;;;;;;;9.80;9.00;;;;;19.10;53.23;100852.53;5116753;28;8923;-61
2023/05/27 09:11:23;;;;;;;;;7.00;5.80;;;;;19.17;53.62;100843.66;5116782;28;8824;-61
2023/05/27 09:13:51;;;;;;;;;6.60;5.80;;;;;19.28;53.17;100840.75;5116513;28;8851;-62
2023/05/27 09:16:19;;;;;;;;;8.00;5.20;;;;;19.40;53.25;100838.66;5116070;28;8823;-61
2023/05/27 09:18:48;;;;;;;;;11.40;9.20;;;;;19.50;52.91;100832.16;5116249;28;8859;-61
2023/05/27 09:21:17;;;;;;;;;3.60;3.20;;;;;19.60;53.35;100830.22;5116616;28;8828;-60
2023/05/27 09:23:44;;;;;;;;;7.80;7.00;;;;;19.75;52.29;100823.22;5116271;28;8823;-61
2023/05/27 09:26:12;;;;;;;;;8.00;8.00;;;;;19.88;52.80;100823.63;5116128;28;8871;-61
2023/05/27 09:28:40;;;;;;;;;7.00;7.00;;;;;19.97;52.35;100827.25;5116027;28;8839;-61
2023/05/27 09:31:09;;;;;;;;;9.60;7.00;;;;;20.06;52.65;100829.00;5116860;28;8848;-61
2023/05/27 09:33:38;;;;;;;;;9.60;9.60;;;;;20.14;52.17;100824.50;5116635;28;8855;-61
2023/05/27 09:36:06;;;;;;;;;10.20;8.00;;;;;20.22;52.57;100821.84;5116604;28;8824;-60
2023/05/27 09:38:33;;;;;;;;;7.40;7.40;;;;;20.32;51.74;100821.72;5116449;28;8946;-61
2023/05/27 09:41:01;;;;;;;;;6.20;6.20;;;;;20.48;52.08;100822.63;5116495;28;8839;-60
2023/05/27 09:43:30;;;;;;;;;8.00;8.00;;;;;20.65;51.70;100818.13;5114879;28;8946;-60
2023/05/27 09:45:58;;;;;;;;;3.20;3.20;;;;;20.87;51.12;100815.69;5116028;28;8839;-61
2023/05/27 09:48:25;;;;;;;;;7.00;7.00;;;;;21.07;51.02;100811.63;5116346;28;9486;-61
2023/05/27 09:50:53;;;;;;;;;7.80;7.00;;;;;21.27;50.47;100813.84;5116051;28;8827;-61
2023/05/27 09:53:23;;;;;;;;;8.60;7.20;;;;;21.49;50.22;100809.63;5115392;28;9563;-61
2023/05/27 09:55:51;;;;;;;;;6.40;6.40;;;;;21.79;49.23;100811.66;5114452;28;9059;-61
2023/05/27 09:58:19;;;;;;;;;8.00;7.40;;;;;22.03;49.22;100803.44;5115270;28;8831;-60
2023/05/27 10:00:47;;;;;;;;;5.00;5.00;;;;;22.34;48.12;100791.63;5115250;28;8840;-61
2023/05/27 10:03:16;;;;;;;;;9.00;8.20;;;;;22.71;48.18;100802.69;5115258;28;8836;-61
2023/05/27 10:05:44;;;;;;;;;11.80;9.00;;;;;23.06;47.82;100793.09;5115442;28;9101;-61
2023/05/27 10:08:13;;;;;;;;;9.20;6.40;;;;;23.40;46.92;100782.66;5115680;28;8823;-61
2023/05/27 10:10:52;;;;;;;;;8.00;8.00;;;;;23.72;46.50;100774.16;5115176;28;8982;-61
2023/05/27 10:13:20;;;;;;;;;8.40;7.60;;;;;24.02;46.13;100782.22;5114832;28;9496;-61
2023/05/27 10:15:49;;;;;;;;;9.40;8.20;;;;;24.29;46.45;100770.66;5115456;28;8855;-62
2023/05/27 10:18:17;;;;;;;;;9.20;9.00;;;;;24.51;45.93;100766.09;5115429;28;9587;-62
2023/05/27 10:20:45;;;;;;;;;6.80;6.20;;;;;24.80;45.43;100766.06;5115059;28;8824;-61
2023/05/27 10:23:13;;;;;;;;;6.40;6.40;;;;;25.15;45.01;100770.59;5115016;28;8866;-61
2023/05/27 10:25:41;;;;;;;;;5.00;5.00;;;;;25.42;44.88;100767.13;5114558;28;8812;-61
2023/05/27 10:28:09;;;;;;;;;9.00;6.40;;;;;25.61;44.61;100767.25;5114530;28;8840;-61
2023/05/27 10:30:37;;;;;;;;;10.40;9.80;;;;;25.79;44.43;100770.31;5113395;28;8866;-61
2023/05/27 10:33:05;;;;;;;;;7.80;7.20;;;;;26.01;44.53;100764.63;5114056;28;8828;-61
2023/05/27 10:35:33;;;;;;;;;7.00;7.00;;;;;26.25;43.90;100760.59;5114305;28;8844;-61
2023/05/27 10:38:01;;;;;;;;;7.00;6.20;;;;;26.44;44.06;100760.66;5113769;28;10664;-61
2023/05/27 10:40:28;;;;;;;;;8.00;7.60;;;;;26.69;43.24;100755.50;5114547;28;9006;-62
2023/05/27 10:42:56;;;;;;;;;7.00;6.20;;;;;26.85;42.97;100755.97;5114736;28;9501;-62
2023/05/27 10:45:25;;;;;;;;;7.80;7.00;;;;;27.04;42.82;100749.72;5115377;28;8836;-61
2023/05/27 10:47:52;;;;;;;;;4.40;3.60;;;;;27.22;42.77;100755.44;5115067;28;8848;-61
2023/05/27 10:50:20;;;;;;;;;8.00;7.40;;;;;27.36;42.87;100746.19;5114456;28;8977;-61
2023/05/27 10:52:48;;;;;;;;;9.20;8.20;;;;;27.53;42.40;100747.44;5114220;28;8855;-61
2023/05/27 10:55:16;;;;;;;;;8.00;6.40;;;;;27.65;42.20;100736.69;5113541;28;8942;-61
2023/05/27 10:57:45;;;;;;;;;7.20;6.40;;;;;27.77;41.79;100741.34;5113414;28;8950;-61
2023/05/27 11:00:12;;;;;;;;;11.00;9.60;;;;;27.88;41.63;100743.44;5114093;28;8824;-61
2023/05/27 11:02:40;;;;;;;;;9.20;8.00;;;;;28.00;41.42;100738.97;5114423;28;8854;-61
2023/05/27 11:05:08;;;;;;;;;9.00;8.00;;;;;28.13;41.37;100721.66;5114627;28;8848;-62
2023/05/27 11:07:37;;;;;;;;;10.60;9.20;;;;;28.28;40.73;100725.81;5116793;28;8936;-61
2023/05/27 11:10:06;;;;;;;;;10.00;8.80;;;;;28.38;40.85;100723.47;5120143;28;8831;-62
2023/05/27 11:12:34;;;;;;;;;6.20;4.40;;;;;28.40;41.14;100717.78;5118528;28;8827;-61
2023/05/27 11:15:02;;;;;;;;;7.20;7.20;;;;;28.52;40.63;100718.78;5118770;28;8835;-61
2023/05/27 11:17:30;;;;;;;;;5.20;5.20;;;;;28.67;40.05;100711.94;5118934;28;8816;-61
2023/05/27 11:19:58;;;;;;;;;7.40;6.60;;;;;28.69;40.21;100711.72;5110134;28;8847;-61
2023/05/27 11:22:27;;;;;;;;;8.60;8.60;;;;;28.72;40.17;100709.38;5118459;28;8831;-61
2023/05/27 11:24:54;;;;;;;;;7.00;6.20;;;;;28.84;39.95;100704.84;5118285;28;8929;-61
2023/05/27 11:27:22;;;;;;;;;8.00;7.80;;;;;28.96;39.79;100708.63;5118389;28;8828;-62
2023/05/27 11:29:50;;;;;;;;;7.80;5.60;;;;;29.03;39.87;100703.91;5118794;28;8967;-61
2023/05/27 11:32:18;;;;;;;;;5.40;5.00;;;;;29.08;39.94;100695.88;5118622;28;8840;-62
2023/05/27 11:34:46;;;;;;;;;10.60;9.60;;;;;29.20;39.44;100691.31;5118441;28;8844;-61
2023/05/27 11:37:14;;;;;;;;;8.60;7.80;;;;;29.48;39.44;100694.44;5118430;28;8834;-61
2023/05/27 11:39:42;;;;;;;;;3.60;2.80;;;;;29.63;39.17;100694.13;5118792;28;8863;-61